Terminal Aerodrome Forecast
Issued by NWS

Home | Current Version | Previous Version | Text Only | Print | Product List | Glossary On
Versions: 1 2 3 4 5 6 7 8 9 10 11 12 13 14 15 16 17 18 19 20
000
FTUS44 KBMX 301456 AAB
TAFTOI
TAF AMD
KTOI 301456Z 3015/3112 00000KT P6SM BKN009
     FM301600 VRB03KT P6SM BKN015
     FM301900 33004KT P6SM BKN050
     FM310200 00000KT P6SM BKN100
      TEMPO 3108/3112 4SM BR OVC015=

USA.gov is the U.S. government's official web portal to all federal, state and local government web resources and services.